createdAt,value
2019-05-03T00:00:02.801Z,10.00
2019-05-03T00:02:42.769Z,10.00
2019-05-03T00:05:13.810Z,9.37
2019-05-03T00:07:43.096Z,9.20
2019-05-03T00:10:13.039Z,10.10
2019-05-03T00:12:42.406Z,10.60
2019-05-03T00:15:28.727Z,9.53
2019-05-03T00:17:58.053Z,10.37
2019-05-03T00:20:27.565Z,9.87
2019-05-03T00:22:56.882Z,9.50
2019-05-03T00:25:27.010Z,10.50
2019-05-03T00:27:56.395Z,10.57
2019-05-03T00:30:25.915Z,10.63
2019-05-03T00:32:55.312Z,10.97
2019-05-03T00:35:35.122Z,11.73
2019-05-03T00:38:06.200Z,11.70
2019-05-03T00:40:35.601Z,11.50
2019-05-03T00:43:04.979Z,11.30
2019-05-03T00:45:34.303Z,12.00
2019-05-03T00:48:03.670Z,12.37
2019-05-03T00:50:32.979Z,12.70
2019-05-03T00:53:02.508Z,12.80
2019-05-03T00:55:32.788Z,13.27
2019-05-03T00:58:02.602Z,14.10
2019-05-03T01:00:32.387Z,14.27
2019-05-03T01:03:02.201Z,14.40
2019-05-03T01:05:33.171Z,14.60
2019-05-03T01:08:02.589Z,14.97
2019-05-03T01:10:33.061Z,15.00
2019-05-03T01:13:02.497Z,14.73
2019-05-03T01:15:36.724Z,14.77
2019-05-03T01:18:07.765Z,15.27
2019-05-03T01:20:37.054Z,15.00
2019-05-03T01:23:06.536Z,15.40
2019-05-03T01:25:35.845Z,15.07
2019-05-03T01:28:05.338Z,14.67
2019-05-03T01:30:34.649Z,14.60
2019-05-03T01:33:03.984Z,15.53
2019-05-03T01:35:33.520Z,14.70
2019-05-03T01:38:02.843Z,14.90
2019-05-03T01:40:32.718Z,14.63
2019-05-03T01:43:02.361Z,14.57
2019-05-03T01:45:31.996Z,15.30
2019-05-03T01:48:09.345Z,16.30
2019-05-03T01:50:40.299Z,16.00
2019-05-03T01:53:12.543Z,15.47
2019-05-03T01:55:52.295Z,15.40
2019-05-03T01:58:22.921Z,15.60
2019-05-03T02:01:12.608Z,16.40
2019-05-03T02:03:43.812Z,17.67
2019-05-03T02:06:13.182Z,17.70
2019-05-03T02:08:42.736Z,17.20
2019-05-03T02:11:12.106Z,16.40
2019-05-03T02:13:42.745Z,18.07
2019-05-03T02:16:12.134Z,18.23
2019-05-03T02:18:42.429Z,18.57
2019-05-03T02:21:12.320Z,18.80
2019-05-03T02:23:42.723Z,18.37
2019-05-03T02:26:11.954Z,20.10
2019-05-03T02:28:42.141Z,19.40
2019-05-03T02:31:13.718Z,20.53
2019-05-03T02:33:43.393Z,19.80
2019-05-03T02:36:13.734Z,20.70
2019-05-03T02:38:43.622Z,19.97
2019-05-03T02:41:13.651Z,20.00
2019-05-03T02:43:59.521Z,20.23
2019-05-03T02:46:35.863Z,20.97
2019-05-03T02:49:15.403Z,20.17
2019-05-03T02:51:46.099Z,21.77
2019-05-03T02:54:15.906Z,21.63
2019-05-03T02:56:45.997Z,21.50
2019-05-03T02:59:16.066Z,22.03
2019-05-03T03:01:46.749Z,21.77
2019-05-03T03:04:17.136Z,23.37
2019-05-03T03:06:47.798Z,22.93
2019-05-03T03:09:19.322Z,22.00
2019-05-03T03:11:50.937Z,21.83
2019-05-03T03:14:22.068Z,21.03
2019-05-03T03:16:52.103Z,20.17
2019-05-03T03:19:26.020Z,20.63
2019-05-03T03:21:57.871Z,20.20
2019-05-03T03:24:29.833Z,19.53
2019-05-03T03:27:01.062Z,17.97
2019-05-03T03:29:31.682Z,19.33
2019-05-03T03:32:11.443Z,19.23
2019-05-03T03:35:03.221Z,19.00
2019-05-03T03:37:29.855Z,18.73
2019-05-03T03:39:59.468Z,20.00
2019-05-03T03:42:31.187Z,18.13
2019-05-03T03:45:02.073Z,19.00
2019-05-03T03:47:35.872Z,20.23
2019-05-03T03:50:06.163Z,19.93
2019-05-03T03:52:36.980Z,19.80
2019-05-03T03:55:07.612Z,19.10
2019-05-03T03:57:37.181Z,17.93
2019-05-03T04:00:08.024Z,17.10
2019-05-03T04:02:39.165Z,15.93
2019-05-03T04:05:09.735Z,14.93
2019-05-03T04:07:39.287Z,14.87
2019-05-03T04:10:09.895Z,13.67
2019-05-03T04:12:40.520Z,13.80
2019-05-03T04:15:28.744Z,14.17
2019-05-03T04:18:08.646Z,12.37
2019-05-03T04:20:38.883Z,11.27
2019-05-03T04:23:08.303Z,10.80
2019-05-03T04:25:37.878Z,11.40
2019-05-03T04:28:08.142Z,10.23
2019-05-03T04:30:37.461Z,10.67
2019-05-03T04:33:07.034Z,10.37
2019-05-03T04:35:36.819Z,11.13
2019-05-03T04:38:06.277Z,10.07
2019-05-03T04:40:36.072Z,10.50
2019-05-03T04:43:06.264Z,10.47
2019-05-03T04:45:36.792Z,10.50
2019-05-03T04:48:06.726Z,9.90
2019-05-03T04:50:36.934Z,10.00
2019-05-03T04:53:06.335Z,11.53
2019-05-03T04:55:36.467Z,11.37
2019-05-03T04:58:06.015Z,12.57
2019-05-03T05:00:36.048Z,11.37
2019-05-03T05:03:06.057Z,10.70
2019-05-03T05:05:36.340Z,11.03
2019-05-03T05:08:06.253Z,10.80
2019-05-03T05:10:36.231Z,11.63
2019-05-03T05:13:05.813Z,10.83
2019-05-03T05:15:35.492Z,10.67
2019-05-03T05:18:16.330Z,10.80
2019-05-03T05:20:56.016Z,10.27
2019-05-03T05:23:25.373Z,10.00
2019-05-03T05:26:11.633Z,10.10
2019-05-03T05:28:45.967Z,9.50
2019-05-03T05:31:15.445Z,9.87
2019-05-03T05:33:44.857Z,9.70
2019-05-03T05:36:15.297Z,9.87
2019-05-03T05:38:45.163Z,9.60
2019-05-03T05:41:15.604Z,8.83
2019-05-03T05:43:45.033Z,9.70
2019-05-03T05:46:15.002Z,9.30
2019-05-03T05:48:45.914Z,9.50
2019-05-03T05:51:16.128Z,9.27
2019-05-03T05:53:45.542Z,11.50
2019-05-03T05:56:16.606Z,9.20
2019-05-03T05:58:47.661Z,12.17
2019-05-03T06:01:25.030Z,9.27
2019-05-03T06:03:55.125Z,8.60
2019-05-03T06:06:29.038Z,11.07
2019-05-03T06:08:59.965Z,9.20
2019-05-03T06:11:36.701Z,9.00
2019-05-03T06:14:24.531Z,8.83
2019-05-03T06:16:58.607Z,10.37
2019-05-03T06:19:29.541Z,8.43
2019-05-03T06:22:12.726Z,8.53
2019-05-03T06:24:45.223Z,9.33
2019-05-03T06:27:24.317Z,9.97
2019-05-03T06:29:54.916Z,8.87
2019-05-03T06:32:25.884Z,11.40
2019-05-03T06:34:55.191Z,10.30
2019-05-03T06:37:26.131Z,9.07
2019-05-03T06:39:55.443Z,9.80
2019-05-03T06:42:25.466Z,10.17
2019-05-03T06:44:59.188Z,10.73
2019-05-03T06:47:28.547Z,11.27
2019-05-03T06:49:57.842Z,11.10
2019-05-03T06:52:29.319Z,10.50
2019-05-03T06:55:00.399Z,8.40
2019-05-03T06:57:29.428Z,8.73
2019-05-03T07:00:16.239Z,8.03
2019-05-03T07:02:47.205Z,7.20
2019-05-03T07:05:21.129Z,5.93
2019-05-03T07:07:57.835Z,5.90
2019-05-03T07:10:38.059Z,5.47
2019-05-03T07:13:09.035Z,4.70
2019-05-03T07:15:38.321Z,4.23
2019-05-03T07:18:07.640Z,5.07
2019-05-03T07:20:50.597Z,4.30
2019-05-03T07:23:19.902Z,3.70
2019-05-03T07:25:49.173Z,3.90
2019-05-03T07:28:18.595Z,3.73
2019-05-03T07:30:47.877Z,3.60
2019-05-03T07:33:25.467Z,3.97
2019-05-03T07:35:55.207Z,3.67
2019-05-03T07:38:24.924Z,3.13
2019-05-03T07:40:55.020Z,4.10
2019-05-03T07:43:24.679Z,4.07
2019-05-03T07:45:55.273Z,3.80
2019-05-03T07:48:25.599Z,3.50
2019-05-03T07:50:55.039Z,3.87
2019-05-03T07:53:25.300Z,3.80
2019-05-03T07:56:05.373Z,3.67
2019-05-03T07:58:37.022Z,4.00
2019-05-03T08:01:25.174Z,4.13
2019-05-03T08:03:55.141Z,3.60
2019-05-03T08:06:24.895Z,3.37
2019-05-03T08:08:54.598Z,3.70
2019-05-03T08:11:24.891Z,3.63
2019-05-03T08:13:54.967Z,3.80
2019-05-03T08:16:25.259Z,4.00
2019-05-03T08:18:55.873Z,3.60
2019-05-03T08:21:25.485Z,3.77
2019-05-03T08:23:55.727Z,3.93
2019-05-03T08:26:25.897Z,3.53
2019-05-03T08:28:55.414Z,4.00
2019-05-03T08:31:26.641Z,3.50
2019-05-03T08:34:00.832Z,3.57
2019-05-03T08:36:31.770Z,3.63
2019-05-03T08:39:01.697Z,4.10
2019-05-03T08:41:32.752Z,3.97
2019-05-03T08:44:02.437Z,4.47
2019-05-03T08:46:32.018Z,4.50
2019-05-03T08:49:02.051Z,4.13
2019-05-03T08:51:31.365Z,4.00
2019-05-03T08:54:00.651Z,3.80
2019-05-03T08:56:30.237Z,4.27
2019-05-03T08:58:59.526Z,4.63
2019-05-03T09:01:28.902Z,4.30
2019-05-03T09:03:58.186Z,4.10
2019-05-03T09:06:27.487Z,4.20
2019-05-03T09:08:57.363Z,4.20
2019-05-03T09:11:34.007Z,4.37
2019-05-03T09:14:04.446Z,4.10
2019-05-03T09:16:35.447Z,4.57
2019-05-03T09:19:05.617Z,4.40
2019-05-03T09:21:35.486Z,4.63
2019-05-03T09:24:05.208Z,5.37
2019-05-03T09:26:35.152Z,4.70
2019-05-03T09:29:05.772Z,4.50
2019-05-03T09:31:35.365Z,4.60
2019-05-03T09:34:08.310Z,4.60
2019-05-03T09:36:37.384Z,4.50
2019-05-03T09:39:08.436Z,4.37
2019-05-03T09:41:37.819Z,5.00
2019-05-03T09:44:07.359Z,4.30
2019-05-03T09:46:36.657Z,4.40
2019-05-03T09:49:13.368Z,4.00
2019-05-03T09:51:37.148Z,3.60
2019-05-03T09:54:10.894Z,4.10
2019-05-03T09:57:00.164Z,3.80
2019-05-03T09:59:30.383Z,3.40
2019-05-03T10:02:01.130Z,3.50
2019-05-03T10:04:30.507Z,3.40
2019-05-03T10:06:59.832Z,3.57
2019-05-03T10:09:29.111Z,3.33
2019-05-03T10:11:58.975Z,3.40
2019-05-03T10:14:28.245Z,3.10
2019-05-03T10:17:05.548Z,3.37
2019-05-03T10:19:40.118Z,3.27
2019-05-03T10:22:06.255Z,3.00
2019-05-03T10:24:36.076Z,3.03
2019-05-03T10:27:05.714Z,3.20
2019-05-03T10:29:35.325Z,3.00
2019-05-03T10:32:21.546Z,3.07
2019-05-03T10:34:55.460Z,3.00
2019-05-03T10:37:29.611Z,3.20
2019-05-03T10:40:01.349Z,3.97
2019-05-03T10:42:31.263Z,3.40
2019-05-03T10:45:00.959Z,3.20
2019-05-03T10:47:30.296Z,3.30
2019-05-03T10:49:59.763Z,3.07
2019-05-03T10:52:30.682Z,3.40
2019-05-03T10:54:59.997Z,3.37
2019-05-03T10:57:30.916Z,3.63
2019-05-03T11:00:00.238Z,3.77
2019-05-03T11:02:35.117Z,3.63
2019-05-03T11:05:07.091Z,3.40
2019-05-03T11:07:36.394Z,3.87
2019-05-03T11:10:07.550Z,3.73
2019-05-03T11:12:36.836Z,3.30
2019-05-03T11:15:08.532Z,3.50
2019-05-03T11:17:37.848Z,3.93
2019-05-03T11:20:07.800Z,3.80
2019-05-03T11:22:37.126Z,3.67
2019-05-03T11:25:07.264Z,3.40
2019-05-03T11:27:38.197Z,3.50
2019-05-03T11:30:09.596Z,3.60
2019-05-03T11:32:55.734Z,3.90
2019-05-03T11:35:29.747Z,3.60
2019-05-03T11:38:00.716Z,3.50
2019-05-03T11:40:30.140Z,3.87
2019-05-03T11:43:01.252Z,3.70
2019-05-03T11:45:30.648Z,3.80
2019-05-03T11:48:00.699Z,3.70
2019-05-03T11:50:30.005Z,3.90
2019-05-03T11:52:59.292Z,4.03
2019-05-03T11:55:28.933Z,3.60
2019-05-03T11:57:58.236Z,4.20
2019-05-03T12:00:29.253Z,3.57
2019-05-03T12:03:00.211Z,3.40
2019-05-03T12:05:31.340Z,3.73
2019-05-03T12:08:00.699Z,3.80
2019-05-03T12:10:46.262Z,3.43
2019-05-03T12:13:05.653Z,3.20
2019-05-03T12:15:35.422Z,3.67
2019-05-03T12:18:07.781Z,3.20
2019-05-03T12:20:39.314Z,3.50
2019-05-03T12:23:09.674Z,3.47
2019-05-03T12:25:40.699Z,3.67
2019-05-03T12:28:10.718Z,3.53
2019-05-03T12:30:40.370Z,3.60
2019-05-03T12:33:09.875Z,3.50
2019-05-03T12:35:39.420Z,3.37
2019-05-03T12:38:08.743Z,4.20
2019-05-03T12:40:38.260Z,3.73
2019-05-03T12:43:07.745Z,3.67
2019-05-03T12:45:37.288Z,3.90
2019-05-03T12:48:06.888Z,3.70
2019-05-03T12:50:36.585Z,3.50
2019-05-03T12:53:06.225Z,3.47
2019-05-03T12:55:35.840Z,3.40
2019-05-03T12:58:06.293Z,3.83
2019-05-03T13:00:52.646Z,3.23
2019-05-03T13:03:26.362Z,3.90
2019-05-03T13:05:55.722Z,3.90
2019-05-03T13:08:35.978Z,5.30
2019-05-03T13:11:06.509Z,3.80
2019-05-03T13:13:36.244Z,3.83
2019-05-03T13:16:07.021Z,3.73
2019-05-03T13:18:36.332Z,3.90
2019-05-03T13:21:06.360Z,4.07
2019-05-03T13:23:35.936Z,3.60
2019-05-03T13:26:06.149Z,3.60
2019-05-03T13:28:35.974Z,3.67
2019-05-03T13:31:06.179Z,3.80
2019-05-03T13:33:35.816Z,3.50
2019-05-03T13:36:06.061Z,3.73
2019-05-03T13:38:35.410Z,4.20
2019-05-03T13:41:06.562Z,4.10
2019-05-03T13:43:36.101Z,4.10
2019-05-03T13:46:05.686Z,3.83
2019-05-03T13:48:42.560Z,3.67
2019-05-03T13:51:06.064Z,3.80
2019-05-03T13:53:35.566Z,3.70
2019-05-03T13:56:05.308Z,4.00
2019-05-03T13:58:35.910Z,4.10
2019-05-03T14:01:05.894Z,4.10
2019-05-03T14:03:36.008Z,4.07
2019-05-03T14:06:08.704Z,4.43
2019-05-03T14:08:36.462Z,4.00
2019-05-03T14:11:05.855Z,4.67
2019-05-03T14:13:35.721Z,4.20
2019-05-03T14:16:06.158Z,4.20
2019-05-03T14:18:36.017Z,4.23
2019-05-03T14:21:10.018Z,3.77
2019-05-03T14:23:57.223Z,4.30
2019-05-03T14:26:26.540Z,4.43
2019-05-03T14:28:55.895Z,4.30
2019-05-03T14:31:25.383Z,4.40
2019-05-03T14:33:55.829Z,4.70
2019-05-03T14:36:25.514Z,4.60
2019-05-03T14:38:55.108Z,4.83
2019-05-03T14:41:25.577Z,5.83
2019-05-03T14:43:55.805Z,5.43
2019-05-03T14:46:32.617Z,4.93
2019-05-03T14:48:56.487Z,4.57
2019-05-03T14:51:25.798Z,4.97
2019-05-03T14:53:57.018Z,5.37
2019-05-03T14:56:28.474Z,5.07
2019-05-03T14:59:15.584Z,5.17
2019-05-03T15:01:46.553Z,5.00
2019-05-03T15:04:15.839Z,5.83
2019-05-03T15:06:46.068Z,8.00
2019-05-03T15:09:18.605Z,5.40
2019-05-03T15:11:46.778Z,6.40
2019-05-03T15:14:16.092Z,6.13
2019-05-03T15:16:45.404Z,4.57
2019-05-03T15:19:14.898Z,5.20
2019-05-03T15:21:45.266Z,6.93
2019-05-03T15:24:14.733Z,6.77
2019-05-03T15:26:44.760Z,12.90
2019-05-03T15:29:15.593Z,5.47
2019-05-03T15:31:45.086Z,5.23
2019-05-03T15:34:15.225Z,5.00
2019-05-03T15:36:45.140Z,4.70
2019-05-03T15:39:15.447Z,4.80
2019-05-03T15:41:45.046Z,5.03
2019-05-03T15:44:18.851Z,4.73
2019-05-03T15:46:49.936Z,5.20
2019-05-03T15:49:19.234Z,6.83
2019-05-03T15:51:48.510Z,5.87
2019-05-03T15:54:17.888Z,5.00
2019-05-03T15:56:47.372Z,5.67
2019-05-03T15:59:16.843Z,5.77
2019-05-03T16:01:46.324Z,6.03
2019-05-03T16:04:15.644Z,5.47
2019-05-03T16:06:45.022Z,6.37
2019-05-03T16:09:15.400Z,6.10
2019-05-03T16:11:45.200Z,6.10
2019-05-03T16:14:15.324Z,6.37
2019-05-03T16:16:45.182Z,6.43
2019-05-03T16:19:14.781Z,6.50
2019-05-03T16:21:45.237Z,6.70
2019-05-03T16:24:15.446Z,6.77
2019-05-03T16:26:47.028Z,6.57
2019-05-03T16:29:16.597Z,7.77
2019-05-03T16:31:46.795Z,6.67
2019-05-03T16:34:16.119Z,6.90
2019-05-03T16:36:45.584Z,7.20
2019-05-03T16:39:15.440Z,7.57
2019-05-03T16:41:45.052Z,7.83
2019-05-03T16:44:14.644Z,7.77
2019-05-03T16:46:45.621Z,7.67
2019-05-03T16:49:15.703Z,7.87
2019-05-03T16:51:45.293Z,6.43
2019-05-03T16:54:16.408Z,6.70
2019-05-03T16:56:45.983Z,7.53
2019-05-03T16:59:17.490Z,6.80
2019-05-03T17:01:46.534Z,6.57
2019-05-03T17:04:25.079Z,7.20
2019-05-03T17:07:02.489Z,6.73
2019-05-03T17:09:45.468Z,7.60
2019-05-03T17:12:16.584Z,6.63
2019-05-03T17:14:46.488Z,7.40
2019-05-03T17:17:15.818Z,7.53
2019-05-03T17:19:45.944Z,7.63
2019-05-03T17:22:17.447Z,7.80
2019-05-03T17:24:46.581Z,7.03
2019-05-03T17:27:15.978Z,7.77
2019-05-03T17:29:46.523Z,9.17
2019-05-03T17:32:15.929Z,7.90
2019-05-03T17:34:45.436Z,7.80
2019-05-03T17:37:14.928Z,8.37
2019-05-03T17:39:48.822Z,10.40
2019-05-03T17:42:35.751Z,9.10
2019-05-03T17:45:06.372Z,8.47
2019-05-03T17:47:35.720Z,9.10
2019-05-03T17:50:07.308Z,8.70
2019-05-03T17:52:41.059Z,10.50
2019-05-03T17:55:12.464Z,9.17
2019-05-03T17:57:46.168Z,10.13
2019-05-03T18:00:20.476Z,8.17
2019-05-03T18:02:50.912Z,7.40
2019-05-03T18:05:37.771Z,7.83
2019-05-03T18:08:24.994Z,9.43
2019-05-03T18:10:56.381Z,7.97
2019-05-03T18:13:25.852Z,7.67
2019-05-03T18:15:55.206Z,8.73
2019-05-03T18:18:25.263Z,7.97
2019-05-03T18:20:55.495Z,7.90
2019-05-03T18:23:25.083Z,7.50
2019-05-03T18:25:54.835Z,7.93
2019-05-03T18:28:24.969Z,8.27
2019-05-03T18:30:54.832Z,7.77
2019-05-03T18:33:24.723Z,7.80
2019-05-03T18:35:55.033Z,7.67
2019-05-03T18:38:25.393Z,8.23
2019-05-03T18:40:55.384Z,7.90
2019-05-03T18:43:35.503Z,7.70
2019-05-03T18:46:23.059Z,8.00
2019-05-03T18:48:52.711Z,8.00
2019-05-03T18:51:22.268Z,8.90
2019-05-03T18:53:51.586Z,8.20
2019-05-03T18:56:20.988Z,8.20
2019-05-03T18:58:50.312Z,9.87
2019-05-03T19:01:19.797Z,8.77
2019-05-03T19:03:50.856Z,8.47
2019-05-03T19:06:20.151Z,8.67
2019-05-03T19:08:59.947Z,9.67
2019-05-03T19:11:31.004Z,13.40
2019-05-03T19:14:01.907Z,9.27
2019-05-03T19:16:38.855Z,10.43
2019-05-03T19:19:09.611Z,9.50
2019-05-03T19:21:39.384Z,10.03
2019-05-03T19:24:10.099Z,10.00
2019-05-03T19:26:39.812Z,10.43
2019-05-03T19:29:09.334Z,10.27
2019-05-03T19:31:39.580Z,10.93
2019-05-03T19:34:09.198Z,10.03
2019-05-03T19:36:38.533Z,15.13
2019-05-03T19:39:08.313Z,10.47
2019-05-03T19:41:38.057Z,9.90
2019-05-03T19:44:07.479Z,9.80
2019-05-03T19:46:37.229Z,9.93
2019-05-03T19:49:06.525Z,9.23
2019-05-03T19:51:36.540Z,9.70
2019-05-03T19:54:06.082Z,9.73
2019-05-03T19:56:35.492Z,9.83
2019-05-03T19:59:06.517Z,9.07
2019-05-03T20:01:40.676Z,10.27
2019-05-03T20:04:27.432Z,9.63
2019-05-03T20:06:58.396Z,10.10
2019-05-03T20:09:28.635Z,9.70
2019-05-03T20:11:58.347Z,9.40
2019-05-03T20:14:27.847Z,9.90
2019-05-03T20:16:57.269Z,10.10
2019-05-03T20:19:26.564Z,10.17
2019-05-03T20:21:56.646Z,10.07
2019-05-03T20:24:26.570Z,10.60
2019-05-03T20:26:56.572Z,10.80
2019-05-03T20:29:25.865Z,11.90
2019-05-03T20:31:55.387Z,11.07
2019-05-03T20:34:25.015Z,11.30
2019-05-03T20:36:54.928Z,10.70
2019-05-03T20:39:25.393Z,11.63
2019-05-03T20:41:55.241Z,11.47
2019-05-03T20:44:32.457Z,11.43
2019-05-03T20:47:04.413Z,11.80
2019-05-03T20:49:34.703Z,11.80
2019-05-03T20:52:04.830Z,11.77
2019-05-03T20:54:35.020Z,11.20
2019-05-03T20:57:05.499Z,11.13
2019-05-03T20:59:45.874Z,11.90
2019-05-03T21:02:08.964Z,11.50
2019-05-03T21:04:38.411Z,12.77
2019-05-03T21:07:08.450Z,14.57
2019-05-03T21:09:37.814Z,13.80
2019-05-03T21:12:07.427Z,14.17
2019-05-03T21:14:36.746Z,13.47
2019-05-03T21:17:10.783Z,12.53
2019-05-03T21:19:57.889Z,12.13
2019-05-03T21:22:28.462Z,12.57
2019-05-03T21:25:02.382Z,11.63
2019-05-03T21:27:31.760Z,12.33
2019-05-03T21:30:01.234Z,11.77
2019-05-03T21:32:30.638Z,12.30
2019-05-03T21:35:00.044Z,14.50
2019-05-03T21:37:29.409Z,12.90
2019-05-03T21:39:58.838Z,14.17
2019-05-03T21:42:28.136Z,12.97
2019-05-03T21:44:57.864Z,12.80
2019-05-03T21:47:40.862Z,13.13
2019-05-03T21:50:14.255Z,13.80
2019-05-03T21:52:43.495Z,12.23
2019-05-03T21:55:14.445Z,13.60
2019-05-03T21:57:44.991Z,13.67
2019-05-03T22:00:16.418Z,14.33
2019-05-03T22:02:45.781Z,14.43
2019-05-03T22:05:16.559Z,14.23
2019-05-03T22:07:45.909Z,14.67
2019-05-03T22:10:16.345Z,14.23
2019-05-03T22:12:45.641Z,14.33
2019-05-03T22:15:34.686Z,14.33
2019-05-03T22:18:11.750Z,14.50
2019-05-03T22:20:43.029Z,13.40
2019-05-03T22:23:19.717Z,13.77
2019-05-03T22:25:49.185Z,13.57
2019-05-03T22:28:18.810Z,13.57
2019-05-03T22:30:48.120Z,13.77
2019-05-03T22:33:17.558Z,13.83
2019-05-03T22:35:47.014Z,14.03
2019-05-03T22:38:16.729Z,13.77
2019-05-03T22:40:46.852Z,16.63
2019-05-03T22:43:16.628Z,15.17
2019-05-03T22:45:45.976Z,14.27
2019-05-03T22:48:16.056Z,15.57
2019-05-03T22:50:45.477Z,13.60
2019-05-03T22:53:14.873Z,14.20
2019-05-03T22:55:45.129Z,14.50
2019-05-03T22:58:15.405Z,14.03
2019-05-03T23:00:44.871Z,14.93
2019-05-03T23:03:14.679Z,15.20
2019-05-03T23:05:45.590Z,14.10
2019-05-03T23:08:15.154Z,13.90
2019-05-03T23:10:45.115Z,14.57
2019-05-03T23:13:15.428Z,14.17
2019-05-03T23:15:44.900Z,14.90
2019-05-03T23:18:14.348Z,14.77
2019-05-03T23:20:55.250Z,15.07
2019-05-03T23:23:42.545Z,15.33
2019-05-03T23:26:11.834Z,15.47
2019-05-03T23:28:41.146Z,19.63
2019-05-03T23:31:10.482Z,15.80
2019-05-03T23:33:39.921Z,15.07
2019-05-03T23:36:09.319Z,56.23
2019-05-03T23:38:39.088Z,77.77
2019-05-03T23:41:08.794Z,16.27
2019-05-03T23:43:38.115Z,18.83
2019-05-03T23:46:08.089Z,28.50
2019-05-03T23:48:37.646Z,38.77
2019-05-03T23:51:08.852Z,19.63
2019-05-03T23:53:38.300Z,30.80
2019-05-03T23:56:15.162Z,36.90
2019-05-03T23:58:44.655Z,21.80
